Time;durP1;ratioP1;P1;durP2;ratioP2;P2;SDS_P1;SDS_P2;PMS_P1;PMS_P2;Temp;Humidity;BMP_temperature;BMP_pressure;BME280_temperature;BME280_humidity;BME280_pressure;Samples;Min_cycle;Max_cycle;Signal;HPM_P1;HPM_P2
2021/05/17 00:01:07;;;;;;;13.82;2.58;;;6.70;99.90;;;;;;5023269;28;19921;-61
2021/05/17 00:03:33;;;;;;;;;;;6.70;99.90;;;;;;5024221;28;20068;-60
2021/05/17 00:05:58;;;;;;;2.20;0.70;;;6.70;99.90;;;;;;5024101;28;19932;-61
2021/05/17 00:08:25;;;;;;;2.42;0.77;;;6.70;99.90;;;;;;5025479;28;20136;-62
2021/05/17 00:10:51;;;;;;;4.53;0.95;;;6.70;99.90;;;;;;5024796;28;20053;-60
2021/05/17 00:13:17;;;;;;;;;;;6.60;99.90;;;;;;5025468;28;20050;-62
2021/05/17 00:15:42;;;;;;;2.63;0.87;;;6.60;99.90;;;;;;5024821;28;20408;-62
2021/05/17 00:18:08;;;;;;;;;;;6.60;99.90;;;;;;5016334;28;20120;-61
2021/05/17 00:20:34;;;;;;;4.10;0.80;;;6.60;99.90;;;;;;5011947;28;20003;-60
2021/05/17 00:23:00;;;;;;;;;;;6.50;99.90;;;;;;5012411;28;20048;-61
2021/05/17 00:25:27;;;;;;;2.55;0.80;;;6.60;99.90;;;;;;5011929;28;19932;-62
2021/05/17 00:27:56;;;;;;;3.65;0.90;;;6.50;99.90;;;;;;5013362;28;20038;-61
2021/05/17 00:30:25;;;;;;;7.75;0.90;;;6.60;99.90;;;;;;5010759;28;20222;-62
2021/05/17 00:32:51;;;;;;;2.58;0.90;;;6.50;99.90;;;;;;5012113;28;20034;-61
2021/05/17 00:35:18;;;;;;;6.07;1.00;;;6.60;99.90;;;;;;5011079;28;20125;-60
2021/05/17 00:37:43;;;;;;;4.00;0.80;;;6.50;99.90;;;;;;5011655;28;20045;-61
2021/05/17 00:40:10;;;;;;;;;;;6.50;99.90;;;;;;5011966;28;20037;-62
2021/05/17 00:42:36;;;;;;;4.40;0.98;;;6.50;99.90;;;;;;5011365;28;20570;-62
2021/05/17 00:45:03;;;;;;;;;;;6.50;99.90;;;;;;5011572;28;20042;-59
2021/05/17 00:47:31;;;;;;;1.48;0.60;;;6.50;99.90;;;;;;5010876;28;20161;-62
2021/05/17 00:49:58;;;;;;;2.10;0.80;;;6.40;99.90;;;;;;5011987;28;20073;-63
2021/05/17 00:52:24;;;;;;;1.23;0.50;;;6.40;99.90;;;;;;5009565;28;20046;-62
2021/05/17 00:54:50;;;;;;;3.30;0.90;;;6.40;99.90;;;;;;5011254;28;20049;-63
2021/05/17 00:57:16;;;;;;;;;;;6.40;99.90;;;;;;5017841;28;20041;-62
2021/05/17 00:59:42;;;;;;;6.32;1.20;;;6.40;99.90;;;;;;5011244;28;19917;-63
2021/05/17 01:02:07;;;;;;;;;;;6.40;99.90;;;;;;5010471;28;20037;-63
2021/05/17 01:04:33;;;;;;;2.28;1.02;;;6.50;99.90;;;;;;5010372;28;20459;-63
2021/05/17 01:06:59;;;;;;;2.85;0.75;;;6.40;99.90;;;;;;5009767;28;20141;-63
2021/05/17 01:09:30;;;;;;;2.30;1.10;;;6.40;99.90;;;;;;5011058;28;20050;-63
2021/05/17 01:11:59;;;;;;;2.85;0.73;;;6.40;99.90;;;;;;5011428;28;20472;-63
2021/05/17 01:14:25;;;;;;;2.45;0.73;;;6.40;99.90;;;;;;5011136;28;20509;-63
2021/05/17 01:16:54;;;;;;;2.53;0.90;;;6.50;99.90;;;;;;5010496;28;20137;-63
2021/05/17 01:19:42;;;;;;;2.13;1.00;;;6.40;99.90;;;;;;5010763;28;20536;-63
2021/05/17 01:22:11;;;;;;;5.03;0.90;;;6.50;99.90;;;;;;5011076;28;20042;-63
2021/05/17 01:24:38;;;;;;;2.33;1.00;;;6.50;99.90;;;;;;5010683;28;20078;-63
2021/05/17 01:27:05;;;;;;;7.22;1.10;;;6.50;99.90;;;;;;5018890;28;20067;-63
2021/05/17 01:29:32;;;;;;;3.00;1.08;;;6.50;99.90;;;;;;5024402;28;20048;-63
2021/05/17 01:31:59;;;;;;;3.67;1.65;;;6.50;99.90;;;;;;5009347;28;20133;-63
2021/05/17 01:34:25;;;;;;;3.03;1.00;;;6.50;99.90;;;;;;5011103;28;20049;-63
2021/05/17 01:36:51;;;;;;;;;;;6.50;99.90;;;;;;5011555;28;20041;-63
2021/05/17 01:39:22;;;;;;;5.90;1.08;;;6.50;99.90;;;;;;5010489;28;19923;-63
2021/05/17 01:41:50;;;;;;;7.22;2.25;;;6.50;99.90;;;;;;5011100;28;20446;-63
2021/05/17 01:44:21;;;;;;;5.05;0.93;;;6.50;99.90;;;;;;5009891;28;20038;-62
2021/05/17 01:46:48;;;;;;;3.60;1.10;;;6.50;99.90;;;;;;5006551;28;20049;-62
2021/05/17 01:49:14;;;;;;;2.25;0.85;;;6.50;99.90;;;;;;5010589;28;20037;-63
2021/05/17 01:51:44;;;;;;;3.55;1.23;;;6.60;99.90;;;;;;5011447;28;20053;-63
2021/05/17 01:54:11;;;;;;;3.28;1.10;;;6.60;99.90;;;;;;5010049;28;20050;-63
2021/05/17 01:56:37;;;;;;;6.15;1.10;;;6.60;99.90;;;;;;5010041;28;20124;-63
2021/05/17 01:59:03;;;;;;;4.28;1.23;;;6.70;99.90;;;;;;5010926;28;20068;-63
2021/05/17 02:01:29;;;;;;;;;;;6.60;99.90;;;;;;5010434;28;20498;-63
2021/05/17 02:03:54;;;;;;;1.65;1.00;;;6.70;99.90;;;;;;5009908;28;19921;-63
2021/05/17 02:06:20;;;;;;;;;;;6.70;99.90;;;;;;5023602;28;20088;-62
2021/05/17 02:08:50;;;;;;;2.75;1.00;;;6.70;99.90;;;;;;5030205;28;20038;-63
2021/05/17 02:11:21;;;;;;;1.90;0.88;;;6.70;99.90;;;;;;5029811;28;20053;-63
2021/05/17 02:13:47;;;;;;;3.70;1.10;;;6.70;99.90;;;;;;5029489;28;20046;-62
2021/05/17 02:16:14;;;;;;;3.13;0.77;;;6.70;99.90;;;;;;5029889;28;20060;-63
2021/05/17 02:18:42;;;;;;;2.72;0.93;;;6.70;99.90;;;;;;5030024;28;20131;-63
2021/05/17 02:21:08;;;;;;;2.35;0.90;;;6.70;99.90;;;;;;5029492;28;20583;-63
2021/05/17 02:23:35;;;;;;;2.72;0.80;;;6.70;99.90;;;;;;5029807;28;20047;-63
2021/05/17 02:26:02;;;;;;;4.28;1.20;;;6.70;99.90;;;;;;5029034;28;20191;-63
2021/05/17 02:28:27;;;;;;;4.50;1.60;;;6.80;99.90;;;;;;5010173;28;20049;-63
2021/05/17 02:30:53;;;;;;;;;;;6.80;99.90;;;;;;5009657;28;20414;-63
2021/05/17 02:33:19;;;;;;;6.90;0.90;;;6.80;99.90;;;;;;5010105;28;19918;-61
2021/05/17 02:35:45;;;;;;;1.80;0.80;;;6.80;99.90;;;;;;5008929;28;20184;-62
2021/05/17 02:38:12;;;;;;;4.43;1.42;;;6.80;99.90;;;;;;5009782;28;20048;-61
2021/05/17 02:40:38;;;;;;;4.60;1.30;;;6.80;99.90;;;;;;5009642;28;20517;-63
2021/05/17 02:43:05;;;;;;;;;;;6.80;99.90;;;;;;5010138;28;20037;-62
2021/05/17 02:45:31;;;;;;;2.17;1.17;;;6.80;99.90;;;;;;5008593;28;19917;-62
2021/05/17 02:47:58;;;;;;;2.25;1.08;;;6.90;99.90;;;;;;5009610;28;20045;-62
2021/05/17 02:50:31;;;;;;;5.05;0.90;;;6.90;99.90;;;;;;5009442;28;20053;-62
2021/05/17 02:52:58;;;;;;;2.75;1.20;;;6.90;99.90;;;;;;4991011;28;20457;-62
2021/05/17 02:55:30;;;;;;;2.80;0.95;;;6.90;99.90;;;;;;5007013;28;20402;-62
2021/05/17 02:58:06;;;;;;;6.68;1.02;;;6.90;99.90;;;;;;5015086;28;20046;-63
2021/05/17 03:00:33;;;;;;;;;;;6.90;99.90;;;;;;5009104;28;20046;-61
2021/05/17 03:03:00;;;;;;;1.17;0.88;;;6.90;99.90;;;;;;5009803;28;20509;-63
2021/05/17 03:05:35;;;;;;;2.90;1.00;;;7.00;99.90;;;;;;5009309;28;20057;-63
2021/05/17 03:08:04;;;;;;;2.53;1.10;;;7.00;99.90;;;;;;5009354;28;20049;-63
2021/05/17 03:10:31;;;;;;;1.25;0.90;;;7.00;99.90;;;;;;5009391;28;20108;-63
2021/05/17 03:13:02;;;;;;;4.28;1.25;;;7.00;99.90;;;;;;5017595;28;20049;-62
2021/05/17 03:15:28;;;;;;;3.05;1.20;;;7.10;99.90;;;;;;5014969;28;20082;-63
2021/05/17 03:17:55;;;;;;;;;;;7.20;99.90;;;;;;5010233;28;20049;-63
2021/05/17 03:20:21;;;;;;;3.25;1.20;;;7.20;99.90;;;;;;5007874;28;19921;-63
2021/05/17 03:22:48;;;;;;;;;;;7.20;99.90;;;;;;5009681;28;20117;-63
2021/05/17 03:25:14;;;;;;;4.03;1.23;;;7.30;99.90;;;;;;5009181;28;19917;-63
2021/05/17 03:27:40;;;;;;;;;;;7.30;99.90;;;;;;5010275;28;20115;-63
2021/05/17 03:30:06;;;;;;;4.18;1.40;;;7.40;99.90;;;;;;5009203;28;20000;-63
2021/05/17 03:32:31;;;;;;;;;;;7.40;99.90;;;;;;5008764;28;20050;-61
2021/05/17 03:34:57;;;;;;;2.72;2.03;;;7.50;99.90;;;;;;5008837;28;19929;-62
2021/05/17 03:37:23;;;;;;;;;;;7.60;99.90;;;;;;5009965;28;20046;-61
2021/05/17 03:39:50;;;;;;;6.30;1.80;;;7.60;99.90;;;;;;5009343;28;20358;-62
2021/05/17 03:42:16;;;;;;;3.72;1.63;;;7.70;99.90;;;;;;5009388;28;20069;-61
2021/05/17 03:44:41;;;;;;;;;;;7.70;99.90;;;;;;5032685;22;20087;-62
2021/05/17 03:47:07;;;;;;;3.83;2.45;;;7.70;99.90;;;;;;5069853;28;20029;-59
2021/05/17 03:49:32;;;;;;;;;;;7.70;99.90;;;;;;5068591;28;20463;-60
2021/05/17 03:51:58;;;;;;;8.38;2.97;;;7.80;99.90;;;;;;5082032;28;19916;-62
2021/05/17 03:54:24;;;;;;;4.35;3.17;;;7.80;99.90;;;;;;5092400;28;20035;-62
2021/05/17 03:56:49;;;;;;;;;;;7.80;99.90;;;;;;5081775;28;20075;-63
2021/05/17 03:59:17;;;;;;;6.07;3.08;;;7.80;99.90;;;;;;5064123;28;19924;-62
2021/05/17 04:01:43;;;;;;;5.85;3.30;;;7.80;99.90;;;;;;5071569;28;20045;-63
2021/05/17 04:04:10;;;;;;;6.65;2.75;;;7.90;99.90;;;;;;5071920;28;20043;-60
2021/05/17 04:14:49;;;;;;;4.68;2.50;;;8.00;99.90;;;;;;5051462;28;20095;-62
2021/05/17 04:17:14;;;;;;;;;;;8.10;99.90;;;;;;5033558;28;20125;-62
2021/05/17 04:19:40;;;;;;;5.20;1.98;;;8.10;99.90;;;;;;5051825;28;20024;-62
2021/05/17 04:22:06;;;;;;;;;;;8.10;99.90;;;;;;5051800;28;20048;-61
2021/05/17 04:24:31;;;;;;;9.27;2.25;;;8.20;99.90;;;;;;5033979;28;20331;-62
2021/05/17 04:26:57;;;;;;;;;;;8.20;99.90;;;;;;5060006;28;20048;-61
2021/05/17 04:29:23;;;;;;;2.72;1.60;;;8.20;99.90;;;;;;5063333;28;19978;-62
2021/05/17 04:31:48;;;;;;;;;;;8.20;99.90;;;;;;5071025;28;20044;-60
2021/05/17 04:34:14;;;;;;;6.18;1.77;;;8.20;99.90;;;;;;5071305;28;20415;-64
2021/05/17 04:36:40;;;;;;;;;;;8.20;99.90;;;;;;5072312;28;20040;-61
2021/05/17 04:39:05;;;;;;;3.95;1.60;;;8.20;99.90;;;;;;5053058;28;19927;-61
2021/05/17 04:41:31;;;;;;;;;;;8.20;99.90;;;;;;5072041;28;20080;-60
2021/05/17 04:43:57;;;;;;;2.03;1.65;;;8.20;99.90;;;;;;5053057;28;19917;-55
2021/05/17 04:46:22;;;;;;;;;;;8.20;99.90;;;;;;5070543;28;20144;-61
2021/05/17 04:48:51;;;;;;;2.33;1.30;;;8.20;99.90;;;;;;5071311;28;19916;-60
2021/05/17 04:51:18;;;;;;;2.13;1.60;;;8.20;99.90;;;;;;5078522;28;20036;-61
2021/05/17 04:53:44;;;;;;;12.27;1.73;;;8.20;99.90;;;;;;5091603;28;20040;-58
2021/05/17 04:56:09;;;;;;;;;;;8.20;99.90;;;;;;5090880;28;20120;-61
2021/05/17 04:58:35;;;;;;;4.63;1.75;;;8.20;99.90;;;;;;5063034;28;20035;-60
2021/05/17 05:01:00;;;;;;;;;;;8.30;99.90;;;;;;5053784;28;20071;-61
2021/05/17 05:03:26;;;;;;;4.97;1.30;;;8.30;99.90;;;;;;5057141;28;20014;-61
2021/05/17 05:05:51;;;;;;;;;;;8.40;99.90;;;;;;5069374;28;20404;-57
2021/05/17 05:08:17;;;;;;;4.90;1.48;;;8.40;99.90;;;;;;5064066;28;19921;-59
2021/05/17 05:10:43;;;;;;;;;;;8.40;99.90;;;;;;5060210;28;20037;-60
2021/05/17 05:13:08;;;;;;;2.78;1.10;;;8.40;99.90;;;;;;5067404;28;19916;-60
2021/05/17 05:15:34;;;;;;;;;;;8.40;99.90;;;;;;5070767;28;20044;-60
2021/05/17 05:17:59;;;;;;;5.07;1.35;;;8.40;99.90;;;;;;5070597;28;19920;-61
2021/05/17 05:20:27;;;;;;;;;;;8.50;99.90;;;;;;5052922;28;20040;-59
2021/05/17 05:22:52;;;;;;;5.03;1.10;;;8.50;99.90;;;;;;5071211;28;20501;-56
2021/05/17 05:25:19;;;;;;;;;;;8.60;99.90;;;;;;5070691;28;20098;-57
2021/05/17 05:27:51;;;;;;;2.38;0.88;;;8.70;99.90;;;;;;5061807;28;19917;-58
2021/05/17 05:30:24;;;;;;;3.83;1.10;;;8.80;99.90;;;;;;5058426;28;20070;-58
2021/05/17 05:33:05;;;;;;;3.30;1.35;;;8.90;99.90;;;;;;5050231;28;20045;-58
2021/05/17 05:35:30;;;;;;;2.53;0.90;;;9.00;99.90;;;;;;5049546;28;20120;-58
2021/05/17 05:37:56;;;;;;;;;;;9.40;99.90;;;;;;5051465;28;20765;-60
2021/05/17 05:40:22;;;;;;;2.72;0.80;;;10.10;99.90;;;;;;5050451;28;19925;-60
2021/05/17 05:42:47;;;;;;;;;;;10.50;99.90;;;;;;5050735;28;20508;-60
2021/05/17 05:45:13;;;;;;;1.42;0.70;;;11.20;99.90;;;;;;5048740;28;19971;-60
2021/05/17 05:47:38;;;;;;;;;;;11.00;99.90;;;;;;5050733;28;20401;-58
2021/05/17 05:50:04;;;;;;;3.40;0.50;;;10.80;99.90;;;;;;5049892;28;19920;-59
2021/05/17 05:52:30;;;;;;;;;;;10.40;99.90;;;;;;5074993;28;20044;-56
2021/05/17 05:55:01;;;;;;;1.63;0.70;;;10.30;99.90;;;;;;5087318;28;19931;-59
2021/05/17 05:57:27;;;;;;;1.42;0.50;;;10.00;99.90;;;;;;5074577;28;20068;-57
2021/05/17 05:59:52;;;;;;;;;;;9.80;99.90;;;;;;5058221;28;20064;-57
2021/05/17 06:02:18;;;;;;;2.35;0.88;;;9.80;99.90;;;;;;5049174;28;19921;-56
2021/05/17 06:04:43;;;;;;;;;;;9.80;99.90;;;;;;5032474;28;20507;-58
2021/05/17 06:07:09;;;;;;;1.15;0.98;;;10.00;99.90;;;;;;5051578;28;19924;-59
2021/05/17 06:09:34;;;;;;;;;;;10.40;99.90;;;;;;5070232;28;20037;-55
2021/05/17 06:12:01;;;;;;;1.38;0.90;;;10.50;99.90;;;;;;5069982;28;19917;-60
2021/05/17 06:14:26;;;;;;;4.68;0.88;;;10.60;99.90;;;;;;5069328;28;20097;-59
2021/05/17 06:16:52;;;;;;;;;;;10.70;99.90;;;;;;5068986;28;20044;-58
2021/05/17 06:19:18;;;;;;;2.88;0.73;;;10.70;99.90;;;;;;5069489;28;19928;-59
2021/05/17 06:21:45;;;;;;;;;;;11.00;99.90;;;;;;5069982;28;20049;-58
2021/05/17 06:24:12;;;;;;;1.63;0.95;;;11.20;99.90;;;;;;5068820;28;19916;-57
2021/05/17 06:26:38;;;;;;;2.60;1.02;;;11.20;99.90;;;;;;5069550;28;20048;-60
2021/05/17 06:29:04;;;;;;;5.00;0.80;;;11.30;99.90;;;;;;5079503;28;20049;-59
2021/05/17 06:31:30;;;;;;;;;;;11.40;99.90;;;;;;5070679;28;20040;-60
2021/05/17 06:33:56;;;;;;;2.47;0.85;;;11.50;99.90;;;;;;5060606;28;20315;-59
2021/05/17 06:36:21;;;;;;;;;;;11.30;99.90;;;;;;5070081;28;20048;-60
2021/05/17 06:38:48;;;;;;;3.67;0.80;;;11.10;99.90;;;;;;5069116;28;20288;-58
2021/05/17 06:41:13;;;;;;;2.97;0.60;;;10.90;99.90;;;;;;5057591;28;20071;-59
2021/05/17 06:43:39;;;;;;;;;;;10.70;99.90;;;;;;5058191;28;20068;-58
2021/05/17 06:46:09;;;;;;;1.77;0.80;;;10.60;99.90;;;;;;5048696;28;19920;-57
2021/05/17 06:48:42;;;;;;;3.55;0.90;;;10.50;99.90;;;;;;5047969;28;20052;-58
2021/05/17 06:51:14;;;;;;;3.80;0.95;;;10.40;99.90;;;;;;5060566;28;20194;-59
2021/05/17 06:53:41;;;;;;;2.33;0.68;;;10.40;99.90;;;;;;5089687;28;20044;-57
2021/05/17 06:56:13;;;;;;;5.63;0.90;;;10.60;99.90;;;;;;5084704;28;20048;-59
2021/05/17 07:01:34;;;;;;;1.95;0.70;;;10.40;99.90;;;;;;5040807;28;20036;-59
2021/05/17 07:03:59;;;;;;;;;;;10.40;99.90;;;;;;5065495;28;20037;-57
2021/05/17 07:06:28;;;;;;;2.60;0.80;;;10.40;99.90;;;;;;5064266;28;19924;-59
2021/05/17 07:14:14;;;;;;;2.65;0.90;;;10.70;99.90;;;;;;5069080;28;20106;-56
2021/05/17 07:16:39;;;;;;;;;;;10.50;99.90;;;;;;5050233;28;20044;-57
2021/05/17 07:19:05;;;;;;;3.05;0.77;;;10.30;99.90;;;;;;5078295;22;20281;-69
2021/05/17 07:24:16;;;;;;;5.70;0.88;;;10.10;99.90;;;;;;5091220;28;19920;-69
2021/05/17 07:26:42;;;;;;;;;;;10.00;99.90;;;;;;5068067;28;20043;-66
2021/05/17 07:29:10;;;;;;;5.15;1.13;;;10.10;99.90;;;;;;5057359;28;20323;-69
2021/05/17 07:31:36;;;;;;;1.95;0.82;;;10.10;99.90;;;;;;5056800;28;20036;-67
2021/05/17 07:34:02;;;;;;;;;;;10.30;99.90;;;;;;5057059;28;20036;-70
2021/05/17 07:36:27;;;;;;;4.38;1.00;;;10.50;99.90;;;;;;5057055;28;19939;-67
2021/05/17 07:38:53;;;;;;;;;;;10.70;99.90;;;;;;5075284;28;20040;-71
2021/05/17 07:41:19;;;;;;;5.90;0.80;;;11.00;99.90;;;;;;5042346;28;19924;-71
2021/05/17 07:43:45;;;;;;;;;;;11.20;99.90;;;;;;5062733;28;20033;-71
2021/05/17 07:46:11;;;;;;;2.50;0.73;;;11.30;99.90;;;;;;5052604;28;19920;-71
2021/05/17 07:49:03;;;;;;;;;;;11.60;99.90;;;;;;5058248;28;20135;-71
2021/05/17 07:51:23;;;;;;;3.05;1.00;;;11.90;99.90;;;;;;5074870;28;20222;-70
2021/05/17 07:53:49;;;;;;;6.05;1.73;;;12.00;99.90;;;;;;5056869;28;20121;-71
2021/05/17 07:56:16;;;;;;;;;;;12.10;99.90;;;;;;5057008;28;20119;-70
2021/05/17 07:58:42;;;;;;;3.55;1.02;;;12.00;99.90;;;;;;5056692;28;19942;-70
2021/05/17 08:01:08;;;;;;;2.17;0.75;;;11.80;99.90;;;;;;5056566;28;20127;-71
2021/05/17 08:03:34;;;;;;;;;;;11.60;99.90;;;;;;5056845;28;20128;-71
2021/05/17 08:06:01;;;;;;;5.68;1.33;;;11.50;99.90;;;;;;5056270;28;19931;-71
2021/05/17 08:08:27;;;;;;;3.65;0.88;;;11.80;99.90;;;;;;5056841;28;20048;-70
2021/05/17 08:10:52;;;;;;;;;;;13.60;99.90;;;;;;5075381;28;20089;-72
2021/05/17 08:13:18;;;;;;;3.53;0.90;;;15.00;96.80;;;;;;5056358;28;19916;-71
2021/05/17 08:15:44;;;;;;;;;;;16.10;94.90;;;;;;5056744;28;20040;-70
2021/05/17 08:18:10;;;;;;;1.50;0.60;;;15.50;93.20;;;;;;5056268;28;19920;-71
2021/05/17 08:20:35;;;;;;;;;;;15.00;94.50;;;;;;5056487;28;20068;-71
2021/05/17 08:23:02;;;;;;;4.13;0.80;;;14.20;95.10;;;;;;5056367;28;19924;-72
2021/05/17 08:25:28;;;;;;;4.75;0.60;;;13.70;96.80;;;;;;5055829;28;20075;-69
2021/05/17 08:27:55;;;;;;;;;;;13.30;98.00;;;;;;5057965;28;20076;-70
2021/05/17 08:30:24;;;;;;;2.88;0.63;;;12.90;98.60;;;;;;5055610;28;19916;-71
2021/05/17 08:32:49;;;;;;;11.93;7.78;;;12.40;98.80;;;;;;5055990;28;20033;-71
2021/05/17 08:35:15;;;;;;;;;;;12.00;99.90;;;;;;5056263;28;20539;-69
2021/05/17 08:37:41;;;;;;;2.67;1.20;;;11.80;99.90;;;;;;5055332;28;19960;-71
2021/05/17 08:40:07;;;;;;;;;;;11.80;99.90;;;;;;5056186;28;20039;-71
2021/05/17 08:42:33;;;;;;;16.10;10.82;;;12.00;99.90;;;;;;5073946;28;20370;-71
2021/05/17 08:44:59;;;;;;;;;;;12.10;99.90;;;;;;5055718;28;20041;-70
2021/05/17 08:47:24;;;;;;;3.95;1.23;;;12.30;99.90;;;;;;5072060;28;19921;-70
2021/05/17 08:49:50;;;;;;;;;;;13.60;99.90;;;;;;5051319;28;20049;-71
2021/05/17 08:52:17;;;;;;;2.60;0.60;;;14.20;97.70;;;;;;5056078;28;19999;-70
2021/05/17 08:54:44;;;;;;;1.30;0.43;;;14.50;97.90;;;;;;5057105;28;20032;-69
2021/05/17 08:57:10;;;;;;;0.93;0.60;;;14.00;97.40;;;;;;5054600;28;20195;-71
2021/05/17 08:59:37;;;;;;;;;;;13.70;97.70;;;;;;5056492;28;20147;-70
2021/05/17 09:02:02;;;;;;;4.68;0.90;;;13.30;98.40;;;;;;5051938;28;19925;-72
2021/05/17 09:04:28;;;;;;;;;;;13.40;99.00;;;;;;5056691;28;20048;-69
2021/05/17 09:06:56;;;;;;;5.75;1.20;;;13.50;97.70;;;;;;5052422;28;19929;-72
2021/05/17 09:09:30;;;;;;;4.22;1.20;;;13.60;97.20;;;;;;5055331;28;20043;-70
2021/05/17 09:12:08;;;;;;;3.53;1.70;;;13.40;97.00;;;;;;5056004;28;20059;-71
2021/05/17 09:14:34;;;;;;;3.95;1.17;;;13.60;96.80;;;;;;5053411;28;20051;-71
2021/05/17 09:17:06;;;;;;;1.98;1.00;;;13.40;96.70;;;;;;5053852;28;20131;-70
2021/05/17 09:19:44;;;;;;;2.00;1.20;;;13.30;96.80;;;;;;5058135;28;20048;-70
2021/05/17 09:22:11;;;;;;;;;;;13.60;96.80;;;;;;5056561;28;20124;-72
2021/05/17 09:24:52;;;;;;;1.48;0.60;;;13.90;96.50;;;;;;5054247;28;19916;-70
2021/05/17 09:27:22;;;;;;;2.92;1.00;;;14.10;94.10;;;;;;5055357;28;20079;-71
2021/05/17 09:29:58;;;;;;;1.60;0.40;;;14.10;95.10;;;;;;5072827;28;20539;-71
2021/05/17 09:32:28;;;;;;;1.02;0.60;;;13.90;93.60;;;;;;5054192;28;20044;-71
2021/05/17 09:34:58;;;;;;;4.40;2.33;;;13.50;94.90;;;;;;5053700;28;20124;-70
2021/05/17 09:37:26;;;;;;;7.72;1.08;;;13.20;96.10;;;;;;5072072;28;20040;-70
2021/05/17 09:39:54;;;;;;;3.42;1.60;;;12.90;97.50;;;;;;5054955;28;20042;-70
2021/05/17 09:42:23;;;;;;;6.70;2.00;;;12.60;98.40;;;;;;5054490;28;20132;-70
2021/05/17 09:44:50;;;;;;;3.65;0.63;;;12.50;99.90;;;;;;5054935;28;20032;-70
2021/05/17 09:47:19;;;;;;;1.60;0.80;;;12.30;99.90;;;;;;5054287;28;20040;-70
2021/05/17 09:49:56;;;;;;;2.03;0.60;;;12.30;99.90;;;;;;5047658;28;20041;-70
2021/05/17 09:52:24;;;;;;;1.05;0.40;;;12.30;99.90;;;;;;5054486;28;20055;-70
2021/05/17 09:55:01;;;;;;;0.80;0.25;;;12.30;99.90;;;;;;5053392;28;20083;-70
2021/05/17 09:57:30;;;;;;;;;;;12.20;99.90;;;;;;5057511;28;20047;-71
2021/05/17 09:59:59;;;;;;;1.42;0.60;;;12.10;99.90;;;;;;5054560;28;19923;-70
2021/05/17 10:02:47;;;;;;;1.20;0.43;;;12.20;99.90;;;;;;5053346;28;20126;-69
2021/05/17 10:05:25;;;;;;;3.78;0.77;;;12.40;99.90;;;;;;5054051;28;20516;-71
2021/05/17 10:07:59;;;;;;;1.27;0.30;;;12.20;98.70;;;;;;5049944;28;20033;-69
2021/05/17 10:10:28;;;;;;;1.33;0.60;;;12.30;99.00;;;;;;5058240;28;20045;-70
2021/05/17 10:12:57;;;;;;;4.40;1.55;;;12.40;99.90;;;;;;5053866;28;20049;-70
2021/05/17 10:15:25;;;;;;;2.33;1.30;;;12.80;99.90;;;;;;5052592;28;20044;-70
2021/05/17 10:17:51;;;;;;;0.88;0.77;;;13.10;99.90;;;;;;5070979;28;20119;-71
2021/05/17 10:20:21;;;;;;;1.08;0.30;;;13.20;98.80;;;;;;5053505;28;20036;-70
2021/05/17 10:22:50;;;;;;;2.45;0.50;;;13.20;99.10;;;;;;5053402;28;20040;-70
2021/05/17 10:25:24;;;;;;;0.80;0.35;;;13.20;97.40;;;;;;5070557;28;20044;-70
2021/05/17 10:27:53;;;;;;;0.30;0.30;;;13.30;98.40;;;;;;5053503;28;20086;-70
2021/05/17 10:30:28;;;;;;;4.05;0.38;;;13.40;97.80;;;;;;5071312;28;20075;-70
2021/05/17 10:33:02;;;;;;;1.25;0.50;;;13.80;98.20;;;;;;5053875;28;20047;-70
2021/05/17 10:35:35;;;;;;;6.15;3.50;;;13.90;96.80;;;;;;5053649;28;20043;-69
2021/05/17 10:38:44;;;;;;;1.92;0.98;;;13.70;96.80;;;;;;5054901;28;20036;-72
2021/05/17 10:41:25;;;;;;;5.13;1.73;;;13.70;96.50;;;;;;5069858;28;20053;-71
2021/05/17 10:44:02;;;;;;;2.05;0.47;;;13.80;97.00;;;;;;5049728;28;20044;-71
2021/05/17 10:46:44;;;;;;;9.40;0.95;;;13.70;95.60;;;;;;5046900;28;20052;-71
2021/05/17 10:49:24;;;;;;;2.30;0.75;;;13.60;95.70;;;;;;5070566;28;20578;-70
2021/05/17 10:51:54;;;;;;;0.75;0.57;;;13.50;95.40;;;;;;5054911;28;20041;-69
2021/05/17 10:54:30;;;;;;;2.05;1.10;;;13.30;96.40;;;;;;5063414;28;20048;-69
2021/05/17 10:57:03;;;;;;;2.90;1.08;;;13.10;97.00;;;;;;5053012;28;20036;-70
2021/05/17 11:02:18;;;;;;;3.17;0.73;;;13.50;99.20;;;;;;5069610;28;20043;-70
2021/05/17 11:04:47;;;;;;;0.30;0.30;;;13.50;97.90;;;;;;5052609;28;20047;-70
2021/05/17 11:07:30;;;;;;;1.02;0.50;;;13.60;96.70;;;;;;5046021;28;20056;-70
2021/05/17 11:10:21;;;;;;;2.05;1.00;;;13.50;98.10;;;;;;5049256;28;20037;-72
2021/05/17 11:12:58;;;;;;;2.83;1.13;;;13.60;96.70;;;;;;5066996;28;20483;-69
2021/05/17 11:15:43;;;;;;;1.88;0.70;;;13.60;96.60;;;;;;5060610;28;20049;-68
2021/05/17 11:18:10;;;;;;;1.65;0.57;;;13.70;97.30;;;;;;5056466;28;20044;-70
2021/05/17 11:20:40;;;;;;;1.83;0.80;;;13.80;98.30;;;;;;5056391;28;20123;-69
2021/05/17 11:23:18;;;;;;;9.65;5.28;;;13.90;96.50;;;;;;5050487;28;20045;-69
2021/05/17 11:25:58;;;;;;;3.45;1.00;;;14.00;96.20;;;;;;5046419;28;20121;-69
2021/05/17 11:28:46;;;;;;;2.78;0.65;;;13.90;96.20;;;;;;5043471;28;20606;-69
2021/05/17 11:33:51;;;;;;;1.83;0.40;;;13.80;96.50;;;;;;5069640;28;20388;-68
2021/05/17 11:36:19;;;;;;;1.05;0.52;;;13.70;96.10;;;;;;5068662;28;20523;-67
2021/05/17 11:39:18;;;;;;;2.17;0.25;;;13.60;97.20;;;;;;5052827;28;20040;-68
2021/05/17 11:42:03;;;;;;;1.48;0.55;;;13.50;97.20;;;;;;5052046;28;20097;-69
2021/05/17 11:44:53;;;;;;;8.15;4.30;;;13.20;98.50;;;;;;5050123;28;20040;-71
2021/05/17 11:47:37;;;;;;;3.65;2.15;;;12.70;99.30;;;;;;5051169;28;20127;-70
2021/05/17 11:50:05;;;;;;;2.55;1.00;;;12.20;99.90;;;;;;5052741;28;20040;-70
2021/05/17 11:52:32;;;;;;;2.85;0.60;;;11.90;99.90;;;;;;5049686;28;20064;-70
2021/05/17 11:55:00;;;;;;;3.53;0.70;;;11.60;99.90;;;;;;5045135;28;20550;-69
2021/05/17 11:57:27;;;;;;;1.08;0.43;;;11.50;99.90;;;;;;5047820;28;20048;-69
2021/05/17 11:59:53;;;;;;;1.80;0.50;;;11.80;99.90;;;;;;5064070;28;20038;-69
2021/05/17 12:02:19;;;;;;;;;;;12.00;99.90;;;;;;5052682;28;20028;-70
2021/05/17 12:04:47;;;;;;;1.98;0.30;;;12.40;99.90;;;;;;5052229;28;19916;-69
2021/05/17 12:07:15;;;;;;;0.55;0.43;;;12.80;99.90;;;;;;5052849;28;20098;-67
2021/05/17 12:09:44;;;;;;;3.25;2.10;;;12.90;99.90;;;;;;5052057;28;20071;-69
2021/05/17 12:12:29;;;;;;;3.28;2.50;;;12.60;99.90;;;;;;5053189;28;20043;-70
2021/05/17 12:15:03;;;;;;;2.30;1.17;;;12.60;99.90;;;;;;5055021;28;20036;-69
2021/05/17 12:17:32;;;;;;;1.10;0.68;;;12.30;99.90;;;;;;5057469;28;20041;-69
2021/05/17 12:20:15;;;;;;;5.93;1.05;;;12.10;99.90;;;;;;5056332;28;20042;-69
2021/05/17 12:22:48;;;;;;;1.98;1.15;;;11.90;99.90;;;;;;5074313;28;20540;-73
2021/05/17 12:25:16;;;;;;;0.70;0.50;;;12.00;99.90;;;;;;5068198;28;20098;-70
2021/05/17 12:27:43;;;;;;;1.23;0.35;;;12.20;99.90;;;;;;5056598;28;20037;-72
2021/05/17 12:30:18;;;;;;;0.43;0.40;;;12.60;99.90;;;;;;5055610;28;20043;-72
2021/05/17 12:32:49;;;;;;;0.40;0.30;;;13.00;99.90;;;;;;5056064;28;20102;-71
2021/05/17 12:35:20;;;;;;;1.23;0.20;;;13.20;99.90;;;;;;5056333;28;20098;-70
2021/05/17 12:37:48;;;;;;;0.73;0.52;;;13.40;99.90;;;;;;5056334;28;20046;-70
2021/05/17 12:40:27;;;;;;;1.20;0.43;;;13.50;98.70;;;;;;5055928;28;20135;-70
2021/05/17 12:43:02;;;;;;;2.22;0.40;;;13.50;99.80;;;;;;5056504;28;20048;-71
2021/05/17 12:45:28;;;;;;;2.53;0.40;;;13.40;99.30;;;;;;5054672;28;20032;-71
2021/05/17 12:47:54;;;;;;;;;;;13.40;99.50;;;;;;5055722;28;20051;-72
2021/05/17 12:50:25;;;;;;;0.45;0.30;;;13.50;99.70;;;;;;5073877;28;19921;-70
2021/05/17 12:53:28;;;;;;;0.47;0.28;;;13.30;99.40;;;;;;5055297;28;20116;-70
2021/05/17 12:55:59;;;;;;;0.35;0.22;;;13.30;99.10;;;;;;5037674;28;20063;-71
2021/05/17 12:58:41;;;;;;;2.00;0.30;;;13.20;99.30;;;;;;5055619;28;20068;-70
2021/05/17 13:01:11;;;;;;;4.18;0.40;;;13.10;99.80;;;;;;5053527;28;20036;-72
2021/05/17 13:03:40;;;;;;;0.70;0.30;;;13.10;99.90;;;;;;5052475;28;20036;-71
2021/05/17 13:06:10;;;;;;;0.70;0.30;;;13.20;99.70;;;;;;5055251;28;20040;-71
2021/05/17 13:08:36;;;;;;;0.32;0.30;;;13.40;99.90;;;;;;5052398;28;20040;-71
2021/05/17 13:11:02;;;;;;;;;;;13.20;98.70;;;;;;5058175;28;20033;-72
2021/05/17 13:14:02;;;;;;;0.88;0.30;;;13.20;98.90;;;;;;5060965;28;20400;-71
2021/05/17 13:16:31;;;;;;;1.95;0.30;;;13.40;98.90;;;;;;5054346;28;20120;-71
2021/05/17 13:19:03;;;;;;;0.60;0.30;;;13.20;98.60;;;;;;5052505;28;20040;-71
2021/05/17 13:21:45;;;;;;;0.68;0.40;;;13.20;98.30;;;;;;5055214;28;20032;-70
2021/05/17 13:32:20;;;;;;;3.03;0.30;;;13.00;99.30;;;;;;5071830;28;20076;-71
2021/05/17 13:34:46;;;;;;;0.70;0.20;;;13.00;98.70;;;;;;5053610;28;20041;-70
2021/05/17 13:37:12;;;;;;;;;;;12.90;98.20;;;;;;5055423;28;20039;-70
2021/05/17 13:39:39;;;;;;;2.95;0.38;;;12.80;98.60;;;;;;5054317;28;19922;-70
2021/05/17 13:42:04;;;;;;;1.58;0.30;;;12.60;99.90;;;;;;5054775;28;20111;-70
2021/05/17 13:44:30;;;;;;;;;;;12.30;99.90;;;;;;5055019;28;20513;-71
2021/05/17 13:46:56;;;;;;;1.58;0.28;;;12.00;99.90;;;;;;5053795;28;19970;-71
2021/05/17 13:49:22;;;;;;;;;;;11.60;99.90;;;;;;5054327;28;20037;-71
2021/05/17 13:51:48;;;;;;;0.50;0.20;;;11.40;99.90;;;;;;5054097;28;19967;-70